sensor_id;sensor_type;location;lat;lon;timestamp;pressure;altitude;pressure_sealevel;temperature;humidity
11523;BME280;40093;43.224;27.910;2022-07-06T00:00:07;100233.78;;;22.77;71.62
11523;BME280;40093;43.224;27.910;2022-07-06T00:02:35;100240.66;;;22.76;72.67
11523;BME280;40093;43.224;27.910;2022-07-06T00:05:02;100237.31;;;22.51;73.83
11523;BME280;40093;43.224;27.910;2022-07-06T00:07:29;100227.91;;;22.36;73.47
11523;BME280;40093;43.224;27.910;2022-07-06T00:09:57;100237.91;;;22.15;75.02
11523;BME280;40093;43.224;27.910;2022-07-06T00:12:25;100236.53;;;22.20;75.79
11523;BME280;40093;43.224;27.910;2022-07-06T00:14:52;100237.81;;;22.28;75.04
11523;BME280;40093;43.224;27.910;2022-07-06T00:17:19;100240.31;;;22.35;74.02
11523;BME280;40093;43.224;27.910;2022-07-06T00:19:46;100236.75;;;22.34;73.38
11523;BME280;40093;43.224;27.910;2022-07-06T00:22:12;100242.31;;;22.25;73.97
11523;BME280;40093;43.224;27.910;2022-07-06T00:24:39;100244.09;;;22.01;75.48
11523;BME280;40093;43.224;27.910;2022-07-06T00:27:08;100249.03;;;21.97;76.09
11523;BME280;40093;43.224;27.910;2022-07-06T00:29:35;100245.66;;;21.81;76.23
11523;BME280;40093;43.224;27.910;2022-07-06T00:32:02;100246.91;;;21.80;76.44
11523;BME280;40093;43.224;27.910;2022-07-06T00:34:29;100247.38;;;21.78;76.59
11523;BME280;40093;43.224;27.910;2022-07-06T00:36:55;100241.13;;;21.74;76.35
11523;BME280;40093;43.224;27.910;2022-07-06T00:39:22;100238.94;;;21.69;76.53
11523;BME280;40093;43.224;27.910;2022-07-06T00:41:54;100240.81;;;21.72;77.07
11523;BME280;40093;43.224;27.910;2022-07-06T00:44:23;100234.88;;;21.70;77.23
11523;BME280;40093;43.224;27.910;2022-07-06T00:46:50;100224.06;;;21.81;77.04
11523;BME280;40093;43.224;27.910;2022-07-06T00:49:17;100223.06;;;21.97;76.29
11523;BME280;40093;43.224;27.910;2022-07-06T00:51:58;100221.91;;;22.16;75.22
11523;BME280;40093;43.224;27.910;2022-07-06T00:54:25;100204.16;;;22.19;74.57
11523;BME280;40093;43.224;27.910;2022-07-06T00:56:53;100223.38;;;22.38;74.58
11523;BME280;40093;43.224;27.910;2022-07-06T00:59:20;100216.19;;;22.37;75.06
11523;BME280;40093;43.224;27.910;2022-07-06T01:01:48;100213.63;;;22.52;75.37
11523;BME280;40093;43.224;27.910;2022-07-06T01:04:16;100209.56;;;22.44;76.40
11523;BME280;40093;43.224;27.910;2022-07-06T01:06:43;100219.38;;;22.48;77.08
11523;BME280;40093;43.224;27.910;2022-07-06T01:09:12;100218.63;;;22.48;78.04
11523;BME280;40093;43.224;27.910;2022-07-06T01:11:39;100210.91;;;22.39;78.62
11523;BME280;40093;43.224;27.910;2022-07-06T01:14:07;100216.19;;;22.37;78.32
11523;BME280;40093;43.224;27.910;2022-07-06T01:16:34;100213.00;;;22.48;78.27
11523;BME280;40093;43.224;27.910;2022-07-06T01:19:02;100210.78;;;22.43;78.35
11523;BME280;40093;43.224;27.910;2022-07-06T01:21:31;100210.72;;;22.34;78.41
11523;BME280;40093;43.224;27.910;2022-07-06T01:23:58;100206.19;;;22.27;78.24
11523;BME280;40093;43.224;27.910;2022-07-06T01:26:25;100207.09;;;22.15;78.93
11523;BME280;40093;43.224;27.910;2022-07-06T01:28:52;100206.50;;;22.20;79.18
11523;BME280;40093;43.224;27.910;2022-07-06T01:31:20;100205.88;;;22.25;79.09
11523;BME280;40093;43.224;27.910;2022-07-06T01:33:48;100203.41;;;22.27;78.99
11523;BME280;40093;43.224;27.910;2022-07-06T01:36:15;100204.59;;;22.17;79.06
11523;BME280;40093;43.224;27.910;2022-07-06T01:38:46;100189.88;;;21.95;79.53
11523;BME280;40093;43.224;27.910;2022-07-06T01:41:13;100201.41;;;21.97;79.75
11523;BME280;40093;43.224;27.910;2022-07-06T01:43:40;100205.69;;;21.80;80.84
11523;BME280;40093;43.224;27.910;2022-07-06T01:46:07;100192.56;;;21.68;81.44
11523;BME280;40093;43.224;27.910;2022-07-06T01:48:34;100206.59;;;21.56;82.57
11523;BME280;40093;43.224;27.910;2022-07-06T01:51:01;100203.22;;;21.39;83.99
11523;BME280;40093;43.224;27.910;2022-07-06T01:53:28;100210.78;;;21.30;84.90
11523;BME280;40093;43.224;27.910;2022-07-06T01:55:56;100195.91;;;21.20;85.39
11523;BME280;40093;43.224;27.910;2022-07-06T01:58:23;100205.28;;;21.48;84.99
11523;BME280;40093;43.224;27.910;2022-07-06T02:00:50;100207.97;;;21.51;84.31
11523;BME280;40093;43.224;27.910;2022-07-06T02:03:17;100206.59;;;21.56;84.01
11523;BME280;40093;43.224;27.910;2022-07-06T02:05:44;100202.19;;;21.67;83.80
11523;BME280;40093;43.224;27.910;2022-07-06T02:08:11;100207.63;;;21.71;83.21
11523;BME280;40093;43.224;27.910;2022-07-06T02:10:38;100208.88;;;21.70;83.55
11523;BME280;40093;43.224;27.910;2022-07-06T02:13:07;100210.25;;;21.65;83.61
11523;BME280;40093;43.224;27.910;2022-07-06T02:15:33;100208.28;;;21.53;84.11
11523;BME280;40093;43.224;27.910;2022-07-06T02:18:01;100203.09;;;21.64;83.41
11523;BME280;40093;43.224;27.910;2022-07-06T02:20:28;100207.50;;;21.74;82.42
11523;BME280;40093;43.224;27.910;2022-07-06T02:22:55;100204.19;;;21.88;80.74
11523;BME280;40093;43.224;27.910;2022-07-06T02:25:22;100200.84;;;21.81;76.22
11523;BME280;40093;43.224;27.910;2022-07-06T02:27:50;100196.03;;;21.81;71.91
11523;BME280;40093;43.224;27.910;2022-07-06T02:30:18;100206.69;;;21.95;69.94
11523;BME280;40093;43.224;27.910;2022-07-06T02:32:45;100201.25;;;22.01;72.19
11523;BME280;40093;43.224;27.910;2022-07-06T02:35:12;100196.78;;;22.03;71.54
11523;BME280;40093;43.224;27.910;2022-07-06T02:37:39;100203.97;;;22.13;74.49
11523;BME280;40093;43.224;27.910;2022-07-06T02:40:07;100195.56;;;22.13;75.97
11523;BME280;40093;43.224;27.910;2022-07-06T02:42:34;100196.03;;;22.12;75.59
11523;BME280;40093;43.224;27.910;2022-07-06T02:45:02;100193.38;;;22.17;74.91
11523;BME280;40093;43.224;27.910;2022-07-06T02:47:31;100199.31;;;22.19;76.04
11523;BME280;40093;43.224;27.910;2022-07-06T02:49:58;100191.16;;;22.03;79.06
11523;BME280;40093;43.224;27.910;2022-07-06T02:52:25;100181.16;;;21.93;80.73
11523;BME280;40093;43.224;27.910;2022-07-06T02:54:51;100184.28;;;21.95;81.28
11523;BME280;40093;43.224;27.910;2022-07-06T02:57:19;100176.03;;;22.01;81.26
11523;BME280;40093;43.224;27.910;2022-07-06T02:59:45;100183.75;;;22.18;80.30
11523;BME280;40093;43.224;27.910;2022-07-06T03:02:15;100183.44;;;22.16;80.62
11523;BME280;40093;43.224;27.910;2022-07-06T03:04:43;100186.41;;;22.22;80.72
11523;BME280;40093;43.224;27.910;2022-07-06T03:07:10;100186.97;;;22.47;80.63
11523;BME280;40093;43.224;27.910;2022-07-06T03:09:37;100177.22;;;22.97;76.67
11523;BME280;40093;43.224;27.910;2022-07-06T03:12:04;100177.63;;;23.67;74.10
11523;BME280;40093;43.224;27.910;2022-07-06T03:14:31;100184.50;;;24.16;70.49
11523;BME280;40093;43.224;27.910;2022-07-06T03:16:58;100187.09;;;24.85;66.84
11523;BME280;40093;43.224;27.910;2022-07-06T03:19:25;100182.31;;;25.00;65.27
11523;BME280;40093;43.224;27.910;2022-07-06T03:21:53;100185.50;;;25.31;64.21
11523;BME280;40093;43.224;27.910;2022-07-06T03:24:20;100176.50;;;25.84;61.95
11523;BME280;40093;43.224;27.910;2022-07-06T03:26:48;100183.09;;;26.45;59.42
11523;BME280;40093;43.224;27.910;2022-07-06T03:29:15;100180.63;;;26.87;57.11
11523;BME280;40093;43.224;27.910;2022-07-06T03:31:45;100179.06;;;27.26;55.22
11523;BME280;40093;43.224;27.910;2022-07-06T03:34:12;100179.91;;;27.57;54.21
11523;BME280;40093;43.224;27.910;2022-07-06T03:36:39;100180.50;;;27.92;53.04
11523;BME280;40093;43.224;27.910;2022-07-06T03:39:08;100180.66;;;28.14;51.81
11523;BME280;40093;43.224;27.910;2022-07-06T03:41:35;100176.28;;;28.44;50.55
11523;BME280;40093;43.224;27.910;2022-07-06T03:44:02;100173.13;;;28.78;49.25
11523;BME280;40093;43.224;27.910;2022-07-06T03:46:29;100175.28;;;29.00;47.88
11523;BME280;40093;43.224;27.910;2022-07-06T03:48:56;100177.72;;;29.40;47.11
11523;BME280;40093;43.224;27.910;2022-07-06T03:51:23;100183.22;;;29.65;46.23
11523;BME280;40093;43.224;27.910;2022-07-06T03:53:50;100188.31;;;29.45;46.46
11523;BME280;40093;43.224;27.910;2022-07-06T03:56:19;100190.31;;;29.28;46.31
11523;BME280;40093;43.224;27.910;2022-07-06T03:58:55;100187.00;;;28.76;47.20
11523;BME280;40093;43.224;27.910;2022-07-06T04:01:22;100186.38;;;28.56;48.23
11523;BME280;40093;43.224;27.910;2022-07-06T04:03:50;100191.41;;;28.83;47.12
11523;BME280;40093;43.224;27.910;2022-07-06T04:06:17;100181.47;;;28.51;48.11
11523;BME280;40093;43.224;27.910;2022-07-06T04:08:44;100180.72;;;28.56;48.09
11523;BME280;40093;43.224;27.910;2022-07-06T04:11:11;100190.56;;;28.71;47.37
11523;BME280;40093;43.224;27.910;2022-07-06T04:13:39;100174.28;;;28.56;47.11
11523;BME280;40093;43.224;27.910;2022-07-06T04:16:07;100183.53;;;28.98;45.48
11523;BME280;40093;43.224;27.910;2022-07-06T04:18:34;100192.13;;;29.25;44.18
11523;BME280;40093;43.224;27.910;2022-07-06T04:21:01;100187.59;;;29.72;42.59
11523;BME280;40093;43.224;27.910;2022-07-06T04:23:28;100186.06;;;29.82;41.85
11523;BME280;40093;43.224;27.910;2022-07-06T04:25:58;100176.00;;;29.97;41.43
11523;BME280;40093;43.224;27.910;2022-07-06T04:28:25;100161.78;;;30.36;40.74
11523;BME280;40093;43.224;27.910;2022-07-06T04:30:53;100179.25;;;30.84;39.62
11523;BME280;40093;43.224;27.910;2022-07-06T04:33:20;100169.06;;;31.10;38.88
11523;BME280;40093;43.224;27.910;2022-07-06T04:35:47;100182.59;;;31.39;38.66
11523;BME280;40093;43.224;27.910;2022-07-06T04:38:14;100180.13;;;31.65;38.34
11523;BME280;40093;43.224;27.910;2022-07-06T04:40:41;100170.22;;;31.77;38.18
11523;BME280;40093;43.224;27.910;2022-07-06T04:43:11;100175.63;;;31.80;37.80
11523;BME280;40093;43.224;27.910;2022-07-06T04:45:54;100183.56;;;31.52;38.42
11523;BME280;40093;43.224;27.910;2022-07-06T04:48:21;100182.50;;;31.55;38.11
11523;BME280;40093;43.224;27.910;2022-07-06T04:50:48;100184.03;;;31.56;38.05
11523;BME280;40093;43.224;27.910;2022-07-06T04:53:15;100185.97;;;31.83;38.21
11523;BME280;40093;43.224;27.910;2022-07-06T04:55:42;100184.78;;;31.62;37.87
11523;BME280;40093;43.224;27.910;2022-07-06T04:58:09;100182.81;;;32.22;36.96
11523;BME280;40093;43.224;27.910;2022-07-06T05:00:36;100180.97;;;32.48;36.62
11523;BME280;40093;43.224;27.910;2022-07-06T05:03:04;100178.13;;;32.48;36.51
11523;BME280;40093;43.224;27.910;2022-07-06T05:05:31;100182.63;;;32.62;36.28
11523;BME280;40093;43.224;27.910;2022-07-06T05:07:58;100183.41;;;32.63;36.78
11523;BME280;40093;43.224;27.910;2022-07-06T05:10:24;100182.13;;;32.10;36.56
11523;BME280;40093;43.224;27.910;2022-07-06T05:12:51;100180.13;;;31.65;37.02
11523;BME280;40093;43.224;27.910;2022-07-06T05:15:18;100185.31;;;32.01;36.90
11523;BME280;40093;43.224;27.910;2022-07-06T05:17:45;100185.66;;;32.16;36.42
11523;BME280;40093;43.224;27.910;2022-07-06T05:20:13;100186.75;;;32.13;36.64
11523;BME280;40093;43.224;27.910;2022-07-06T05:22:40;100185.88;;;32.53;36.68
11523;BME280;40093;43.224;27.910;2022-07-06T05:25:08;100190.59;;;32.93;36.08
11523;BME280;40093;43.224;27.910;2022-07-06T05:27:35;100177.19;;;33.07;35.38
11523;BME280;40093;43.224;27.910;2022-07-06T05:30:02;100190.84;;;33.14;35.78
11523;BME280;40093;43.224;27.910;2022-07-06T05:32:29;100182.78;;;33.55;34.97
11523;BME280;40093;43.224;27.910;2022-07-06T05:34:56;100181.22;;;33.17;35.02
11523;BME280;40093;43.224;27.910;2022-07-06T05:37:24;100190.06;;;33.13;35.71
11523;BME280;40093;43.224;27.910;2022-07-06T05:39:51;100192.94;;;33.13;35.30
11523;BME280;40093;43.224;27.910;2022-07-06T05:42:18;100192.97;;;32.89;35.47
11523;BME280;40093;43.224;27.910;2022-07-06T05:44:45;100187.22;;;32.95;34.33
11523;BME280;40093;43.224;27.910;2022-07-06T05:47:12;100184.59;;;32.97;34.22
11523;BME280;40093;43.224;27.910;2022-07-06T05:49:56;100183.44;;;33.05;33.46
11523;BME280;40093;43.224;27.910;2022-07-06T05:52:43;100183.41;;;33.29;32.84
11523;BME280;40093;43.224;27.910;2022-07-06T05:55:11;100187.88;;;33.43;33.36
11523;BME280;40093;43.224;27.910;2022-07-06T05:57:38;100192.84;;;33.93;32.45
11523;BME280;40093;43.224;27.910;2022-07-06T06:00:07;100193.41;;;34.23;32.09
11523;BME280;40093;43.224;27.910;2022-07-06T06:02:38;100196.69;;;34.27;32.10
11523;BME280;40093;43.224;27.910;2022-07-06T06:05:07;100176.84;;;34.47;31.56
11523;BME280;40093;43.224;27.910;2022-07-06T06:07:34;100187.53;;;34.98;31.29
11523;BME280;40093;43.224;27.910;2022-07-06T06:10:06;100191.25;;;34.42;31.88
11523;BME280;40093;43.224;27.910;2022-07-06T06:12:33;100177.53;;;33.77;33.79
11523;BME280;40093;43.224;27.910;2022-07-06T06:15:01;100184.63;;;33.52;34.41
11523;BME280;40093;43.224;27.910;2022-07-06T06:17:28;100172.22;;;33.50;35.05
11523;BME280;40093;43.224;27.910;2022-07-06T06:19:55;100174.88;;;33.79;34.51
11523;BME280;40093;43.224;27.910;2022-07-06T06:22:22;100177.66;;;33.66;34.91
11523;BME280;40093;43.224;27.910;2022-07-06T06:24:49;100176.84;;;34.03;34.50
11523;BME280;40093;43.224;27.910;2022-07-06T06:27:18;100179.44;;;34.32;33.98
11523;BME280;40093;43.224;27.910;2022-07-06T06:29:45;100164.56;;;34.78;33.22
11523;BME280;40093;43.224;27.910;2022-07-06T06:32:12;100164.09;;;34.61;33.13
11523;BME280;40093;43.224;27.910;2022-07-06T06:34:40;100171.34;;;34.36;33.70
11523;BME280;40093;43.224;27.910;2022-07-06T06:37:07;100171.13;;;34.34;34.04
11523;BME280;40093;43.224;27.910;2022-07-06T06:39:34;100174.69;;;34.79;33.43
11523;BME280;40093;43.224;27.910;2022-07-06T06:42:01;100169.63;;;34.72;33.16
11523;BME280;40093;43.224;27.910;2022-07-06T06:44:29;100174.63;;;34.53;33.60
11523;BME280;40093;43.224;27.910;2022-07-06T06:46:56;100166.50;;;34.44;33.74
11523;BME280;40093;43.224;27.910;2022-07-06T06:49:23;100167.81;;;34.30;33.33
11523;BME280;40093;43.224;27.910;2022-07-06T06:51:50;100175.22;;;34.20;33.40
11523;BME280;40093;43.224;27.910;2022-07-06T06:54:16;100165.84;;;34.51;32.91
11523;BME280;40093;43.224;27.910;2022-07-06T06:56:43;100172.28;;;34.26;34.07
11523;BME280;40093;43.224;27.910;2022-07-06T06:59:10;100165.19;;;34.58;33.01
11523;BME280;40093;43.224;27.910;2022-07-06T07:01:38;100171.25;;;35.06;32.75
11523;BME280;40093;43.224;27.910;2022-07-06T07:04:05;100158.78;;;35.17;32.42
11523;BME280;40093;43.224;27.910;2022-07-06T07:06:32;100163.19;;;35.18;31.95
11523;BME280;40093;43.224;27.910;2022-07-06T07:09:00;100166.72;;;35.24;32.25
11523;BME280;40093;43.224;27.910;2022-07-06T07:11:27;100164.63;;;35.24;31.99
11523;BME280;40093;43.224;27.910;2022-07-06T07:13:54;100166.13;;;35.38;32.14
11523;BME280;40093;43.224;27.910;2022-07-06T07:16:20;100165.53;;;35.53;31.83
11523;BME280;40093;43.224;27.910;2022-07-06T07:18:51;100172.09;;;35.61;31.34
11523;BME280;40093;43.224;27.910;2022-07-06T07:21:18;100155.88;;;35.43;31.43
11523;BME280;40093;43.224;27.910;2022-07-06T07:23:44;100167.13;;;35.41;31.45
11523;BME280;40093;43.224;27.910;2022-07-06T07:26:11;100170.00;;;35.28;31.51
11523;BME280;40093;43.224;27.910;2022-07-06T07:28:38;100177.00;;;35.40;31.38
11523;BME280;40093;43.224;27.910;2022-07-06T07:31:06;100178.50;;;35.20;31.38
11523;BME280;40093;43.224;27.910;2022-07-06T07:33:33;100170.22;;;35.17;31.18
11523;BME280;40093;43.224;27.910;2022-07-06T07:36:02;100184.28;;;35.41;30.70
11523;BME280;40093;43.224;27.910;2022-07-06T07:38:29;100178.53;;;35.54;30.12
11523;BME280;40093;43.224;27.910;2022-07-06T07:40:56;100185.41;;;35.25;29.67
11523;BME280;40093;43.224;27.910;2022-07-06T07:43:22;100187.88;;;35.21;29.11
11523;BME280;40093;43.224;27.910;2022-07-06T07:45:49;100176.84;;;35.25;27.61
11523;BME280;40093;43.224;27.910;2022-07-06T07:48:16;100179.38;;;35.28;27.48
11523;BME280;40093;43.224;27.910;2022-07-06T07:50:43;100183.22;;;35.18;27.91
11523;BME280;40093;43.224;27.910;2022-07-06T07:53:12;100178.72;;;35.09;27.78
11523;BME280;40093;43.224;27.910;2022-07-06T07:55:39;100179.94;;;35.01;28.50
11523;BME280;40093;43.224;27.910;2022-07-06T07:58:06;100177.06;;;35.14;28.28
11523;BME280;40093;43.224;27.910;2022-07-06T08:00:33;100183.69;;;35.22;28.32
11523;BME280;40093;43.224;27.910;2022-07-06T08:03:01;100177.72;;;35.07;28.31
11523;BME280;40093;43.224;27.910;2022-07-06T08:05:27;100176.41;;;34.56;29.20
11523;BME280;40093;43.224;27.910;2022-07-06T08:07:54;100178.38;;;34.61;29.30
11523;BME280;40093;43.224;27.910;2022-07-06T08:10:23;100187.97;;;34.63;28.78
11523;BME280;40093;43.224;27.910;2022-07-06T08:12:50;100175.75;;;34.63;28.13
11523;BME280;40093;43.224;27.910;2022-07-06T08:15:16;100181.66;;;34.65;28.63
11523;BME280;40093;43.224;27.910;2022-07-06T08:17:43;100178.19;;;34.72;28.62
11523;BME280;40093;43.224;27.910;2022-07-06T08:20:11;100186.75;;;34.85;28.43
11523;BME280;40093;43.224;27.910;2022-07-06T08:22:38;100189.09;;;34.73;28.45
11523;BME280;40093;43.224;27.910;2022-07-06T08:25:06;100188.75;;;34.77;28.40
11523;BME280;40093;43.224;27.910;2022-07-06T08:27:35;100185.88;;;34.90;28.50
11523;BME280;40093;43.224;27.910;2022-07-06T08:30:02;100179.28;;;34.95;28.24
11523;BME280;40093;43.224;27.910;2022-07-06T08:32:29;100186.19;;;34.99;28.58
11523;BME280;40093;43.224;27.910;2022-07-06T08:34:56;100185.34;;;34.78;28.09
11523;BME280;40093;43.224;27.910;2022-07-06T08:37:23;100182.38;;;34.71;28.31
11523;BME280;40093;43.224;27.910;2022-07-06T08:39:50;100182.47;;;34.65;29.50
11523;BME280;40093;43.224;27.910;2022-07-06T08:42:17;100176.41;;;34.69;29.15
11523;BME280;40093;43.224;27.910;2022-07-06T08:44:46;100188.88;;;34.71;29.52
11523;BME280;40093;43.224;27.910;2022-07-06T08:47:14;100184.22;;;34.55;29.64
11523;BME280;40093;43.224;27.910;2022-07-06T08:49:43;100185.03;;;34.25;30.76
11523;BME280;40093;43.224;27.910;2022-07-06T08:52:11;100189.97;;;33.93;30.65
11523;BME280;40093;43.224;27.910;2022-07-06T08:54:38;100185.06;;;33.93;31.66
11523;BME280;40093;43.224;27.910;2022-07-06T08:57:05;100183.69;;;33.81;31.71
11523;BME280;40093;43.224;27.910;2022-07-06T08:59:33;100181.69;;;33.76;31.14
11523;BME280;40093;43.224;27.910;2022-07-06T09:02:03;100182.44;;;33.58;31.51
11523;BME280;40093;43.224;27.910;2022-07-06T09:04:32;100165.22;;;33.32;31.88
11523;BME280;40093;43.224;27.910;2022-07-06T09:06:59;100182.78;;;33.36;31.81
11523;BME280;40093;43.224;27.910;2022-07-06T09:09:29;100175.09;;;33.31;31.45
11523;BME280;40093;43.224;27.910;2022-07-06T09:11:57;100178.09;;;33.39;31.12
11523;BME280;40093;43.224;27.910;2022-07-06T09:14:24;100175.59;;;33.48;31.08
11523;BME280;40093;43.224;27.910;2022-07-06T09:16:52;100178.94;;;33.52;31.03
11523;BME280;40093;43.224;27.910;2022-07-06T09:19:30;100172.75;;;33.67;30.24
11523;BME280;40093;43.224;27.910;2022-07-06T09:21:57;100173.22;;;33.52;30.24
11523;BME280;40093;43.224;27.910;2022-07-06T09:24:24;100170.59;;;33.54;30.04
11523;BME280;40093;43.224;27.910;2022-07-06T09:26:54;100172.75;;;33.48;30.42
11523;BME280;40093;43.224;27.910;2022-07-06T09:29:26;100170.91;;;33.51;31.49
11523;BME280;40093;43.224;27.910;2022-07-06T09:31:58;100181.88;;;33.47;31.91
11523;BME280;40093;43.224;27.910;2022-07-06T09:34:41;100185.88;;;33.38;31.85
11523;BME280;40093;43.224;27.910;2022-07-06T09:37:08;100176.16;;;33.28;32.04
11523;BME280;40093;43.224;27.910;2022-07-06T09:39:36;100167.69;;;33.23;32.43
11523;BME280;40093;43.224;27.910;2022-07-06T09:42:04;100161.78;;;33.15;32.92
11523;BME280;40093;43.224;27.910;2022-07-06T09:44:33;100159.94;;;32.99;32.78
11523;BME280;40093;43.224;27.910;2022-07-06T09:47:03;100153.59;;;32.88;33.29
11523;BME280;40093;43.224;27.910;2022-07-06T09:49:31;100153.84;;;32.90;34.06
11523;BME280;40093;43.224;27.910;2022-07-06T09:52:01;100157.59;;;32.79;33.01
11523;BME280;40093;43.224;27.910;2022-07-06T09:54:29;100162.59;;;32.73;33.60
11523;BME280;40093;43.224;27.910;2022-07-06T09:56:57;100142.63;;;32.73;33.70
11523;BME280;40093;43.224;27.910;2022-07-06T09:59:25;100154.91;;;32.87;33.61
11523;BME280;40093;43.224;27.910;2022-07-06T10:01:53;100151.31;;;32.86;33.11
11523;BME280;40093;43.224;27.910;2022-07-06T10:04:22;100153.13;;;32.84;33.52
11523;BME280;40093;43.224;27.910;2022-07-06T10:06:49;100151.53;;;32.64;33.07
11523;BME280;40093;43.224;27.910;2022-07-06T10:09:19;100141.94;;;32.43;34.38
11523;BME280;40093;43.224;27.910;2022-07-06T10:11:49;100140.59;;;32.20;34.11
11523;BME280;40093;43.224;27.910;2022-07-06T10:14:18;100139.47;;;32.05;34.78
11523;BME280;40093;43.224;27.910;2022-07-06T10:16:47;100142.00;;;31.79;36.01
11523;BME280;40093;43.224;27.910;2022-07-06T10:19:15;100144.28;;;31.86;35.50
11523;BME280;40093;43.224;27.910;2022-07-06T10:21:43;100145.88;;;31.81;35.43
11523;BME280;40093;43.224;27.910;2022-07-06T10:24:11;100140.72;;;31.80;35.02
11523;BME280;40093;43.224;27.910;2022-07-06T10:26:40;100147.13;;;31.86;35.44
11523;BME280;40093;43.224;27.910;2022-07-06T10:29:08;100132.84;;;31.91;34.49
11523;BME280;40093;43.224;27.910;2022-07-06T10:31:37;100136.16;;;31.95;34.00
11523;BME280;40093;43.224;27.910;2022-07-06T10:34:06;100123.75;;;31.93;33.82
11523;BME280;40093;43.224;27.910;2022-07-06T10:36:40;100138.06;;;32.17;34.16
11523;BME280;40093;43.224;27.910;2022-07-06T10:39:08;100136.03;;;31.82;34.84
11523;BME280;40093;43.224;27.910;2022-07-06T10:41:54;100148.81;;;31.70;34.90
11523;BME280;40093;43.224;27.910;2022-07-06T10:44:23;100146.25;;;31.61;35.12
11523;BME280;40093;43.224;27.910;2022-07-06T10:46:51;100137.72;;;31.61;35.55
11523;BME280;40093;43.224;27.910;2022-07-06T10:49:20;100135.94;;;31.58;35.84
11523;BME280;40093;43.224;27.910;2022-07-06T10:51:48;100143.13;;;31.70;36.03
11523;BME280;40093;43.224;27.910;2022-07-06T10:54:17;100128.06;;;31.75;36.29
11523;BME280;40093;43.224;27.910;2022-07-06T10:56:46;100128.34;;;31.72;36.23
11523;BME280;40093;43.224;27.910;2022-07-06T10:59:18;100135.63;;;31.73;35.90
11523;BME280;40093;43.224;27.910;2022-07-06T11:02:14;100126.06;;;31.70;35.86
11523;BME280;40093;43.224;27.910;2022-07-06T11:04:41;100132.81;;;31.67;35.98
11523;BME280;40093;43.224;27.910;2022-07-06T11:07:10;100127.38;;;31.64;36.58
11523;BME280;40093;43.224;27.910;2022-07-06T11:09:38;100124.03;;;31.60;35.99
11523;BME280;40093;43.224;27.910;2022-07-06T11:12:17;100130.53;;;31.55;37.27
11523;BME280;40093;43.224;27.910;2022-07-06T11:14:47;100124.16;;;31.44;36.73
11523;BME280;40093;43.224;27.910;2022-07-06T11:17:15;100128.88;;;31.36;37.24
11523;BME280;40093;43.224;27.910;2022-07-06T11:19:49;100119.41;;;31.22;36.66
11523;BME280;40093;43.224;27.910;2022-07-06T11:22:17;100116.78;;;31.24;36.52
11523;BME280;40093;43.224;27.910;2022-07-06T11:24:45;100110.31;;;31.24;36.27
11523;BME280;40093;43.224;27.910;2022-07-06T11:27:13;100113.91;;;31.30;36.51
11523;BME280;40093;43.224;27.910;2022-07-06T11:29:40;100110.25;;;31.35;37.58
11523;BME280;40093;43.224;27.910;2022-07-06T11:32:08;100114.34;;;31.39;37.28
11523;BME280;40093;43.224;27.910;2022-07-06T11:34:38;100109.41;;;31.45;37.15
11523;BME280;40093;43.224;27.910;2022-07-06T11:37:07;100106.31;;;31.43;37.93
11523;BME280;40093;43.224;27.910;2022-07-06T11:39:35;100102.97;;;31.39;38.40
11523;BME280;40093;43.224;27.910;2022-07-06T11:42:03;100106.84;;;31.42;37.63
11523;BME280;40093;43.224;27.910;2022-07-06T11:44:30;100110.22;;;31.40;37.35
11523;BME280;40093;43.224;27.910;2022-07-06T11:46:58;100104.88;;;31.31;36.40
11523;BME280;40093;43.224;27.910;2022-07-06T11:49:28;100102.53;;;31.30;37.21
11523;BME280;40093;43.224;27.910;2022-07-06T11:51:56;100096.03;;;31.35;36.21
11523;BME280;40093;43.224;27.910;2022-07-06T11:54:24;100098.41;;;31.31;37.79
11523;BME280;40093;43.224;27.910;2022-07-06T11:56:53;100103.59;;;31.27;38.58
11523;BME280;40093;43.224;27.910;2022-07-06T11:59:21;100086.63;;;31.16;38.09
11523;BME280;40093;43.224;27.910;2022-07-06T12:01:49;100093.31;;;31.13;38.53
11523;BME280;40093;43.224;27.910;2022-07-06T12:04:16;100092.91;;;30.98;38.67
11523;BME280;40093;43.224;27.910;2022-07-06T12:06:45;100086.72;;;30.94;38.29
11523;BME280;40093;43.224;27.910;2022-07-06T12:09:12;100084.34;;;31.03;39.12
11523;BME280;40093;43.224;27.910;2022-07-06T12:11:40;100080.97;;;31.05;38.91
11523;BME280;40093;43.224;27.910;2022-07-06T12:14:16;100093.09;;;31.05;39.79
11523;BME280;40093;43.224;27.910;2022-07-06T12:16:44;100092.31;;;31.10;40.11
11523;BME280;40093;43.224;27.910;2022-07-06T12:19:11;100082.81;;;30.97;39.70
11523;BME280;40093;43.224;27.910;2022-07-06T12:21:45;100084.44;;;30.87;39.76
11523;BME280;40093;43.224;27.910;2022-07-06T12:24:18;100052.47;;;30.70;39.98
11523;BME280;40093;43.224;27.910;2022-07-06T12:26:46;100075.59;;;30.96;41.37
11523;BME280;40093;43.224;27.910;2022-07-06T12:29:13;100078.66;;;31.03;40.49
11523;BME280;40093;43.224;27.910;2022-07-06T12:31:42;100082.28;;;31.04;42.44
11523;BME280;40093;43.224;27.910;2022-07-06T12:34:15;100075.03;;;31.03;44.07
11523;BME280;40093;43.224;27.910;2022-07-06T12:36:44;100077.38;;;30.99;43.66
11523;BME280;40093;43.224;27.910;2022-07-06T12:39:11;100053.44;;;30.83;43.20
11523;BME280;40093;43.224;27.910;2022-07-06T12:41:44;100062.22;;;30.85;42.82
11523;BME280;40093;43.224;27.910;2022-07-06T12:44:12;100049.59;;;30.81;43.55